sensor_id;sensor_type;location;lat;lon;timestamp;pressure;altitude;pressure_sealevel;temperature;humidity
11985;BME280;6052;53.246;10.368;2023-07-28T00:00:15;99658.78;;;19.48;100.00
11985;BME280;6052;53.246;10.368;2023-07-28T00:02:44;99667.91;;;19.52;100.00
11985;BME280;6052;53.246;10.368;2023-07-28T00:05:20;99669.97;;;19.47;100.00
11985;BME280;6052;53.246;10.368;2023-07-28T00:07:49;99665.19;;;19.44;100.00
11985;BME280;6052;53.246;10.368;2023-07-28T00:10:19;99675.66;;;19.11;100.00
11985;BME280;6052;53.246;10.368;2023-07-28T00:12:48;99676.69;;;19.24;100.00
11985;BME280;6052;53.246;10.368;2023-07-28T00:15:18;99664.84;;;19.45;100.00
11985;BME280;6052;53.246;10.368;2023-07-28T00:17:47;99654.44;;;19.47;100.00
11985;BME280;6052;53.246;10.368;2023-07-28T00:20:22;99649.63;;;19.53;100.00
11985;BME280;6052;53.246;10.368;2023-07-28T00:22:51;99646.59;;;19.54;100.00
11985;BME280;6052;53.246;10.368;2023-07-28T00:25:21;99650.13;;;19.46;100.00
11985;BME280;6052;53.246;10.368;2023-07-28T00:27:50;99649.00;;;19.56;100.00
11985;BME280;6052;53.246;10.368;2023-07-28T00:30:20;99653.00;;;19.50;100.00
11985;BME280;6052;53.246;10.368;2023-07-28T00:32:50;99647.09;;;19.56;100.00
11985;BME280;6052;53.246;10.368;2023-07-28T00:35:22;99642.44;;;19.57;100.00
11985;BME280;6052;53.246;10.368;2023-07-28T00:37:51;99639.38;;;19.58;100.00
11985;BME280;6052;53.246;10.368;2023-07-28T00:40:21;99634.75;;;19.59;100.00
11985;BME280;6052;53.246;10.368;2023-07-28T00:42:50;99637.94;;;19.61;100.00
11985;BME280;6052;53.246;10.368;2023-07-28T00:45:20;99637.94;;;19.61;100.00
11985;BME280;6052;53.246;10.368;2023-07-28T00:47:50;99637.16;;;19.52;100.00
11985;BME280;6052;53.246;10.368;2023-07-28T00:50:22;99641.63;;;19.56;100.00
11985;BME280;6052;53.246;10.368;2023-07-28T00:52:51;99636.50;;;19.55;100.00
11985;BME280;6052;53.246;10.368;2023-07-28T00:55:22;99640.50;;;19.40;100.00
11985;BME280;6052;53.246;10.368;2023-07-28T00:57:51;99637.31;;;19.47;100.00
11985;BME280;6052;53.246;10.368;2023-07-28T01:00:21;99637.31;;;19.47;100.00
11985;BME280;6052;53.246;10.368;2023-07-28T01:02:50;99640.69;;;19.52;100.00
11985;BME280;6052;53.246;10.368;2023-07-28T01:05:26;99631.38;;;19.53;100.00
11985;BME280;6052;53.246;10.368;2023-07-28T01:08:01;99619.19;;;19.59;100.00
11985;BME280;6052;53.246;10.368;2023-07-28T01:10:31;99614.41;;;19.56;100.00
11985;BME280;6052;53.246;10.368;2023-07-28T01:13:00;99616.78;;;19.58;100.00
11985;BME280;6052;53.246;10.368;2023-07-28T01:15:29;99615.84;;;19.62;100.00
11985;BME280;6052;53.246;10.368;2023-07-28T01:17:59;99623.19;;;19.62;100.00
11985;BME280;6052;53.246;10.368;2023-07-28T01:20:33;99618.91;;;19.52;100.00
11985;BME280;6052;53.246;10.368;2023-07-28T01:23:08;99631.53;;;19.57;100.00
11985;BME280;6052;53.246;10.368;2023-07-28T01:25:49;99618.41;;;19.59;100.00
11985;BME280;6052;53.246;10.368;2023-07-28T01:28:25;99619.69;;;19.53;100.00
11985;BME280;6052;53.246;10.368;2023-07-28T01:30:56;99623.22;;;19.53;100.00
11985;BME280;6052;53.246;10.368;2023-07-28T01:33:25;99624.31;;;19.61;100.00
11985;BME280;6052;53.246;10.368;2023-07-28T01:35:55;99620.31;;;19.58;100.00
11985;BME280;6052;53.246;10.368;2023-07-28T01:38:25;99613.44;;;19.61;100.00
11985;BME280;6052;53.246;10.368;2023-07-28T01:40:54;99618.41;;;19.59;100.00
11985;BME280;6052;53.246;10.368;2023-07-28T01:43:26;99612.97;;;19.59;100.00
11985;BME280;6052;53.246;10.368;2023-07-28T01:45:56;99619.19;;;19.59;100.00
11985;BME280;6052;53.246;10.368;2023-07-28T01:48:25;99617.44;;;19.63;100.00
11985;BME280;6052;53.246;10.368;2023-07-28T01:50:55;99620.16;;;19.63;100.00
11985;BME280;6052;53.246;10.368;2023-07-28T01:53:24;99620.97;;;19.64;100.00
11985;BME280;6052;53.246;10.368;2023-07-28T01:55:54;99618.41;;;19.59;100.00
11985;BME280;6052;53.246;10.368;2023-07-28T01:58:23;99621.59;;;19.61;100.00
11985;BME280;6052;53.246;10.368;2023-07-28T02:00:55;99628.50;;;19.58;100.00
11985;BME280;6052;53.246;10.368;2023-07-28T02:03:25;99628.66;;;19.62;100.00
11985;BME280;6052;53.246;10.368;2023-07-28T02:05:54;99634.09;;;19.53;100.00
11985;BME280;6052;53.246;10.368;2023-07-28T02:08:23;99627.69;;;19.66;100.00
11985;BME280;6052;53.246;10.368;2023-07-28T02:10:53;99627.22;;;19.56;100.00
11985;BME280;6052;53.246;10.368;2023-07-28T02:13:23;99631.69;;;19.60;100.00
11985;BME280;6052;53.246;10.368;2023-07-28T02:15:54;99632.66;;;19.56;100.00
11985;BME280;6052;53.246;10.368;2023-07-28T02:18:24;99639.06;;;19.34;100.00
11985;BME280;6052;53.246;10.368;2023-07-28T02:20:53;99637.63;;;19.37;100.00
11985;BME280;6052;53.246;10.368;2023-07-28T02:23:23;99633.44;;;19.48;100.00
11985;BME280;6052;53.246;10.368;2023-07-28T02:25:52;99640.53;;;19.49;100.00
11985;BME280;6052;53.246;10.368;2023-07-28T02:28:21;99636.34;;;19.51;100.00
11985;BME280;6052;53.246;10.368;2023-07-28T02:30:51;99644.53;;;19.51;100.00
11985;BME280;6052;53.246;10.368;2023-07-28T02:33:23;99654.47;;;19.39;100.00
11985;BME280;6052;53.246;10.368;2023-07-28T02:35:52;99650.75;;;19.52;100.00
11985;BME280;6052;53.246;10.368;2023-07-28T02:38:22;99657.78;;;19.53;100.00
11985;BME280;6052;53.246;10.368;2023-07-28T02:40:51;99660.69;;;19.48;100.00
11985;BME280;6052;53.246;10.368;2023-07-28T02:43:21;99658.63;;;19.45;100.00
11985;BME280;6052;53.246;10.368;2023-07-28T02:45:53;99669.34;;;19.50;100.00
11985;BME280;6052;53.246;10.368;2023-07-28T02:48:25;99666.31;;;19.51;100.00
11985;BME280;6052;53.246;10.368;2023-07-28T02:50:55;99666.47;;;19.55;100.00
11985;BME280;6052;53.246;10.368;2023-07-28T02:53:24;99663.25;;;19.53;100.00
11985;BME280;6052;53.246;10.368;2023-07-28T02:55:54;99675.25;;;19.60;100.00
11985;BME280;6052;53.246;10.368;2023-07-28T02:58:25;99657.97;;;19.65;100.00
11985;BME280;6052;53.246;10.368;2023-07-28T03:00:54;99663.56;;;19.60;100.00
11985;BME280;6052;53.246;10.368;2023-07-28T03:03:26;99665.16;;;19.69;100.00
11985;BME280;6052;53.246;10.368;2023-07-28T03:05:56;99670.78;;;19.47;100.00
11985;BME280;6052;53.246;10.368;2023-07-28T03:08:25;99670.94;;;19.59;100.00
11985;BME280;6052;53.246;10.368;2023-07-28T03:10:56;99663.44;;;19.56;100.00
11985;BME280;6052;53.246;10.368;2023-07-28T03:13:25;99676.88;;;19.61;100.00
11985;BME280;6052;53.246;10.368;2023-07-28T03:15:55;99682.78;;;19.55;100.00
11985;BME280;6052;53.246;10.368;2023-07-28T03:18:27;99691.28;;;19.53;100.00
11985;BME280;6052;53.246;10.368;2023-07-28T03:20:56;99684.69;;;19.63;100.00
11985;BME280;6052;53.246;10.368;2023-07-28T03:23:25;99680.88;;;19.64;100.00
11985;BME280;6052;53.246;10.368;2023-07-28T03:25:55;99677.50;;;19.67;100.00
11985;BME280;6052;53.246;10.368;2023-07-28T03:28:24;99681.97;;;19.63;100.00
11985;BME280;6052;53.246;10.368;2023-07-28T03:30:54;99681.34;;;19.66;100.00
11985;BME280;6052;53.246;10.368;2023-07-28T03:33:23;99686.47;;;19.67;100.00
11985;BME280;6052;53.246;10.368;2023-07-28T03:35:55;99688.38;;;19.67;100.00
11985;BME280;6052;53.246;10.368;2023-07-28T03:38:24;99693.38;;;19.56;100.00
11985;BME280;6052;53.246;10.368;2023-07-28T03:40:54;99698.31;;;19.63;100.00
11985;BME280;6052;53.246;10.368;2023-07-28T03:43:23;99696.56;;;19.67;100.00
11985;BME280;6052;53.246;10.368;2023-07-28T03:45:53;99694.50;;;19.64;100.00
11985;BME280;6052;53.246;10.368;2023-07-28T03:48:22;99696.56;;;19.58;100.00
11985;BME280;6052;53.246;10.368;2023-07-28T03:50:52;99687.41;;;19.63;100.00
11985;BME280;6052;53.246;10.368;2023-07-28T03:53:23;99698.66;;;19.61;100.00
11985;BME280;6052;53.246;10.368;2023-07-28T03:55:53;99695.13;;;19.61;100.00
11985;BME280;6052;53.246;10.368;2023-07-28T03:58:24;99700.72;;;19.64;100.00
11985;BME280;6052;53.246;10.368;2023-07-28T04:00:54;99701.69;;;19.68;100.00
11985;BME280;6052;53.246;10.368;2023-07-28T04:03:23;99709.03;;;19.68;100.00
11985;BME280;6052;53.246;10.368;2023-07-28T04:05:53;99707.59;;;19.62;100.00
11985;BME280;6052;53.246;10.368;2023-07-28T04:08:25;99715.00;;;19.61;100.00
11985;BME280;6052;53.246;10.368;2023-07-28T04:10:54;99709.03;;;19.68;100.00
11985;BME280;6052;53.246;10.368;2023-07-28T04:13:23;99716.44;;;19.67;100.00
11985;BME280;6052;53.246;10.368;2023-07-28T04:15:53;99712.91;;;19.67;100.00
11985;BME280;6052;53.246;10.368;2023-07-28T04:18:22;99721.06;;;19.58;100.00
11985;BME280;6052;53.246;10.368;2023-07-28T04:20:52;99724.75;;;19.54;100.00
11985;BME280;6052;53.246;10.368;2023-07-28T04:23:21;99730.22;;;19.54;100.00
11985;BME280;6052;53.246;10.368;2023-07-28T04:25:53;99728.94;;;19.60;100.00
11985;BME280;6052;53.246;10.368;2023-07-28T04:28:25;99737.56;;;19.53;100.00
11985;BME280;6052;53.246;10.368;2023-07-28T04:30:54;99731.34;;;19.61;100.00
11985;BME280;6052;53.246;10.368;2023-07-28T04:33:23;99737.09;;;19.60;100.00
11985;BME280;6052;53.246;10.368;2023-07-28T04:35:53;99736.44;;;19.54;100.00
11985;BME280;6052;53.246;10.368;2023-07-28T04:38:22;99733.56;;;19.59;100.00
11985;BME280;6052;53.246;10.368;2023-07-28T04:40:54;99741.56;;;19.64;100.00
11985;BME280;6052;53.246;10.368;2023-07-28T04:43:24;99755.81;;;19.44;100.00
11985;BME280;6052;53.246;10.368;2023-07-28T04:45:55;99756.13;;;19.43;100.00
11985;BME280;6052;53.246;10.368;2023-07-28T04:48:26;99759.50;;;19.48;100.00
11985;BME280;6052;53.246;10.368;2023-07-28T04:50:56;99762.38;;;19.52;100.00
11985;BME280;6052;53.246;10.368;2023-07-28T04:53:26;99770.22;;;19.36;100.00
11985;BME280;6052;53.246;10.368;2023-07-28T04:55:57;99769.91;;;19.46;100.00
11985;BME280;6052;53.246;10.368;2023-07-28T04:58:27;99765.56;;;19.37;100.00
11985;BME280;6052;53.246;10.368;2023-07-28T05:00:56;99762.38;;;19.52;100.00
11985;BME280;6052;53.246;10.368;2023-07-28T05:03:26;99764.47;;;19.55;100.00
11985;BME280;6052;53.246;10.368;2023-07-28T05:05:55;99764.44;;;19.38;100.00
11985;BME280;6052;53.246;10.368;2023-07-28T05:08:24;99763.81;;;19.41;100.00
11985;BME280;6052;53.246;10.368;2023-07-28T05:10:58;99770.91;;;19.59;100.00
11985;BME280;6052;53.246;10.368;2023-07-28T05:13:28;99768.81;;;19.56;100.00
11985;BME280;6052;53.246;10.368;2023-07-28T05:15:58;99772.00;;;19.49;100.00
11985;BME280;6052;53.246;10.368;2023-07-28T05:18:27;99769.94;;;19.55;100.00
11985;BME280;6052;53.246;10.368;2023-07-28T05:20:57;99771.69;;;19.59;100.00
11985;BME280;6052;53.246;10.368;2023-07-28T05:23:26;99779.03;;;19.42;100.00
11985;BME280;6052;53.246;10.368;2023-07-28T05:25:58;99786.72;;;19.57;100.00
11985;BME280;6052;53.246;10.368;2023-07-28T05:28:28;99790.41;;;19.44;100.00
11985;BME280;6052;53.246;10.368;2023-07-28T05:31:03;99789.28;;;19.45;100.00
11985;BME280;6052;53.246;10.368;2023-07-28T05:33:33;99793.78;;;19.49;100.00
11985;BME280;6052;53.246;10.368;2023-07-28T05:36:03;99794.06;;;19.39;100.00
11985;BME280;6052;53.246;10.368;2023-07-28T05:38:33;99790.06;;;19.37;100.00
11985;BME280;6052;53.246;10.368;2023-07-28T05:41:05;99784.00;;;19.65;100.00
11985;BME280;6052;53.246;10.368;2023-07-28T05:43:35;99786.56;;;19.45;100.00
11985;BME280;6052;53.246;10.368;2023-07-28T05:46:04;99788.16;;;19.46;100.00
11985;BME280;6052;53.246;10.368;2023-07-28T05:48:33;99794.75;;;19.53;100.00
11985;BME280;6052;53.246;10.368;2023-07-28T05:51:03;99798.25;;;19.45;100.00
11985;BME280;6052;53.246;10.368;2023-07-28T05:53:32;99802.09;;;19.44;100.00
11985;BME280;6052;53.246;10.368;2023-07-28T05:56:04;99804.34;;;19.51;100.00
11985;BME280;6052;53.246;10.368;2023-07-28T05:58:34;99803.56;;;19.59;100.00
11985;BME280;6052;53.246;10.368;2023-07-28T06:01:03;99810.13;;;19.58;100.00
11985;BME280;6052;53.246;10.368;2023-07-28T06:03:33;99811.91;;;19.62;100.00
11985;BME280;6052;53.246;10.368;2023-07-28T06:06:02;99808.38;;;19.62;100.00
11985;BME280;6052;53.246;10.368;2023-07-28T06:08:32;99800.84;;;19.67;100.00
11985;BME280;6052;53.246;10.368;2023-07-28T06:11:05;99806.63;;;19.66;100.00
11985;BME280;6052;53.246;10.368;2023-07-28T06:13:35;99814.94;;;19.61;100.00
11985;BME280;6052;53.246;10.368;2023-07-28T06:16:04;99814.63;;;19.62;100.00
11985;BME280;6052;53.246;10.368;2023-07-28T06:18:34;99813.34;;;19.60;100.00
11985;BME280;6052;53.246;10.368;2023-07-28T06:21:03;99810.94;;;19.67;100.00
11985;BME280;6052;53.246;10.368;2023-07-28T06:23:33;99813.66;;;19.67;100.00
11985;BME280;6052;53.246;10.368;2023-07-28T06:26:05;99819.41;;;19.65;100.00
11985;BME280;6052;53.246;10.368;2023-07-28T06:28:34;99819.91;;;19.67;100.00
11985;BME280;6052;53.246;10.368;2023-07-28T06:31:05;99822.47;;;19.64;100.00
11985;BME280;6052;53.246;10.368;2023-07-28T06:33:35;99834.00;;;19.61;100.00
11985;BME280;6052;53.246;10.368;2023-07-28T06:36:05;99842.16;;;19.52;100.00
11985;BME280;6052;53.246;10.368;2023-07-28T06:38:37;99839.75;;;19.59;100.00
11985;BME280;6052;53.246;10.368;2023-07-28T06:41:10;99847.78;;;19.64;100.00
11985;BME280;6052;53.246;10.368;2023-07-28T06:43:39;99844.59;;;19.71;100.00
11985;BME280;6052;53.246;10.368;2023-07-28T06:46:09;99848.44;;;19.61;100.00
11985;BME280;6052;53.246;10.368;2023-07-28T06:48:38;99857.09;;;19.72;100.00
11985;BME280;6052;53.246;10.368;2023-07-28T06:51:08;99849.72;;;19.72;100.00
11985;BME280;6052;53.246;10.368;2023-07-28T06:53:37;99855.63;;;19.66;100.00
11985;BME280;6052;53.246;10.368;2023-07-28T06:56:06;99861.75;;;19.71;100.00
11985;BME280;6052;53.246;10.368;2023-07-28T06:58:38;99857.44;;;19.70;100.00
11985;BME280;6052;53.246;10.368;2023-07-28T07:01:16;99856.31;;;19.71;100.00
11985;BME280;6052;53.246;10.368;2023-07-28T07:03:46;99855.31;;;19.67;100.00
11985;BME280;6052;53.246;10.368;2023-07-28T07:06:15;99864.94;;;19.82;100.00
11985;BME280;6052;53.246;10.368;2023-07-28T07:08:45;99872.97;;;19.78;100.00
11985;BME280;6052;53.246;10.368;2023-07-28T07:11:14;99875.22;;;19.76;100.00
11985;BME280;6052;53.246;10.368;2023-07-28T07:13:46;99877.63;;;19.78;100.00
11985;BME280;6052;53.246;10.368;2023-07-28T07:16:17;99870.44;;;19.90;100.00
11985;BME280;6052;53.246;10.368;2023-07-28T07:18:51;99878.13;;;19.88;100.00
11985;BME280;6052;53.246;10.368;2023-07-28T07:21:20;99879.22;;;19.79;100.00
11985;BME280;6052;53.246;10.368;2023-07-28T07:23:50;99889.00;;;19.88;100.00
11985;BME280;6052;53.246;10.368;2023-07-28T07:26:19;99892.03;;;19.87;100.00
11985;BME280;6052;53.246;10.368;2023-07-28T07:28:51;99891.56;;;19.85;100.00
11985;BME280;6052;53.246;10.368;2023-07-28T07:31:21;99895.13;;;19.85;100.00
11985;BME280;6052;53.246;10.368;2023-07-28T07:33:50;99898.16;;;19.84;100.00
11985;BME280;6052;53.246;10.368;2023-07-28T07:36:19;99899.75;;;19.85;100.00
11985;BME280;6052;53.246;10.368;2023-07-28T07:38:49;99900.22;;;19.87;100.00
11985;BME280;6052;53.246;10.368;2023-07-28T07:41:21;99917.22;;;19.84;100.00
11985;BME280;6052;53.246;10.368;2023-07-28T07:43:54;99913.50;;;19.80;100.00
11985;BME280;6052;53.246;10.368;2023-07-28T07:46:24;99919.63;;;19.85;100.00
11985;BME280;6052;53.246;10.368;2023-07-28T07:48:53;99919.16;;;19.92;100.00
11985;BME280;6052;53.246;10.368;2023-07-28T07:51:23;99911.13;;;19.87;100.00
11985;BME280;6052;53.246;10.368;2023-07-28T07:53:52;99917.53;;;19.91;100.00
11985;BME280;6052;53.246;10.368;2023-07-28T07:56:21;99913.06;;;19.95;100.00
11985;BME280;6052;53.246;10.368;2023-07-28T07:58:53;99921.56;;;19.93;100.00
11985;BME280;6052;53.246;10.368;2023-07-28T08:01:23;99920.13;;;19.96;100.00
11985;BME280;6052;53.246;10.368;2023-07-28T08:03:53;99927.66;;;19.99;100.00
11985;BME280;6052;53.246;10.368;2023-07-28T08:06:22;99929.59;;;19.98;100.00
11985;BME280;6052;53.246;10.368;2023-07-28T08:08:52;99934.09;;;20.03;100.00
11985;BME280;6052;53.246;10.368;2023-07-28T08:11:23;99944.31;;;19.97;100.00
11985;BME280;6052;53.246;10.368;2023-07-28T08:13:55;99937.75;;;19.98;100.00
11985;BME280;6052;53.246;10.368;2023-07-28T08:16:25;99944.81;;;19.99;100.00
11985;BME280;6052;53.246;10.368;2023-07-28T08:18:55;99939.19;;;20.04;100.00
11985;BME280;6052;53.246;10.368;2023-07-28T08:21:24;99956.38;;;20.05;100.00
11985;BME280;6052;53.246;10.368;2023-07-28T08:23:54;99965.47;;;19.92;100.00
11985;BME280;6052;53.246;10.368;2023-07-28T08:26:23;99956.53;;;20.00;100.00
11985;BME280;6052;53.246;10.368;2023-07-28T08:28:55;99969.00;;;20.01;100.00
11985;BME280;6052;53.246;10.368;2023-07-28T08:31:24;99971.13;;;20.04;100.00
11985;BME280;6052;53.246;10.368;2023-07-28T08:33:54;99969.19;;;20.04;100.00
11985;BME280;6052;53.246;10.368;2023-07-28T08:36:23;99975.75;;;20.03;100.00
11985;BME280;6052;53.246;10.368;2023-07-28T08:38:53;99973.84;;;20.04;100.00
11985;BME280;6052;53.246;10.368;2023-07-28T08:41:22;99979.66;;;20.11;100.00
11985;BME280;6052;53.246;10.368;2023-07-28T08:43:55;99982.34;;;20.02;100.00
11985;BME280;6052;53.246;10.368;2023-07-28T08:46:24;99986.81;;;20.07;100.00
11985;BME280;6052;53.246;10.368;2023-07-28T08:48:54;99989.22;;;20.00;100.00
11985;BME280;6052;53.246;10.368;2023-07-28T08:51:23;99990.97;;;20.04;100.00
11985;BME280;6052;53.246;10.368;2023-07-28T08:53:53;99989.69;;;20.02;100.00
11985;BME280;6052;53.246;10.368;2023-07-28T08:56:24;99993.72;;;20.04;100.00
11985;BME280;6052;53.246;10.368;2023-07-28T08:58:59;99995.66;;;20.04;100.00
11985;BME280;6052;53.246;10.368;2023-07-28T09:01:29;99994.72;;;20.08;100.00
11985;BME280;6052;53.246;10.368;2023-07-28T09:03:59;99987.69;;;20.16;100.00
11985;BME280;6052;53.246;10.368;2023-07-28T09:06:29;99991.38;;;20.11;100.00
11985;BME280;6052;53.246;10.368;2023-07-28T09:08:59;99997.28;;;20.13;100.00
11985;BME280;6052;53.246;10.368;2023-07-28T09:11:30;99998.09;;;20.14;100.00
11985;BME280;6052;53.246;10.368;2023-07-28T09:14:02;99996.97;;;20.15;100.00
11985;BME280;6052;53.246;10.368;2023-07-28T09:16:32;100003.09;;;20.20;100.00
11985;BME280;6052;53.246;10.368;2023-07-28T09:19:07;100002.59;;;20.18;100.00
11985;BME280;6052;53.246;10.368;2023-07-28T09:21:38;100007.91;;;20.23;100.00
11985;BME280;6052;53.246;10.368;2023-07-28T09:24:09;100002.28;;;20.20;100.00
11985;BME280;6052;53.246;10.368;2023-07-28T09:26:40;100008.56;;;20.20;100.00
11985;BME280;6052;53.246;10.368;2023-07-28T09:29:17;100001.81;;;20.18;100.00
11985;BME280;6052;53.246;10.368;2023-07-28T09:31:48;100007.44;;;20.21;100.00
11985;BME280;6052;53.246;10.368;2023-07-28T09:34:24;100004.41;;;20.31;100.00
11985;BME280;6052;53.246;10.368;2023-07-28T09:36:54;100001.50;;;20.28;100.00
11985;BME280;6052;53.246;10.368;2023-07-28T09:39:24;100010.84;;;20.44;100.00
11985;BME280;6052;53.246;10.368;2023-07-28T09:41:54;100011.00;;;20.39;100.00
11985;BME280;6052;53.246;10.368;2023-07-28T09:44:29;100016.13;;;20.49;100.00
11985;BME280;6052;53.246;10.368;2023-07-28T09:46:59;100022.88;;;20.51;100.00
11985;BME280;6052;53.246;10.368;2023-07-28T09:49:33;100021.13;;;20.47;100.00
11985;BME280;6052;53.246;10.368;2023-07-28T09:52:08;100015.66;;;20.47;100.00
11985;BME280;6052;53.246;10.368;2023-07-28T09:54:39;100016.00;;;20.54;100.00
11985;BME280;6052;53.246;10.368;2023-07-28T09:57:12;100024.47;;;20.44;100.00
11985;BME280;6052;53.246;10.368;2023-07-28T09:59:45;100025.78;;;20.55;100.00
11985;BME280;6052;53.246;10.368;2023-07-28T10:02:16;100021.28;;;20.50;100.00
11985;BME280;6052;53.246;10.368;2023-07-28T10:04:46;100021.44;;;20.45;100.00
11985;BME280;6052;53.246;10.368;2023-07-28T10:07:16;100023.19;;;20.50;100.00
11985;BME280;6052;53.246;10.368;2023-07-28T10:09:45;100029.16;;;20.52;100.00
11985;BME280;6052;53.246;10.368;2023-07-28T10:12:18;100020.97;;;20.52;100.00
11985;BME280;6052;53.246;10.368;2023-07-28T10:15:05;100028.50;;;20.55;100.00
11985;BME280;6052;53.246;10.368;2023-07-28T10:17:35;100029.47;;;20.59;100.00
11985;BME280;6052;53.246;10.368;2023-07-28T10:20:05;100041.50;;;20.58;100.00
11985;BME280;6052;53.246;10.368;2023-07-28T10:22:43;100033.31;;;20.58;100.00
11985;BME280;6052;53.246;10.368;2023-07-28T10:25:21;100036.53;;;20.60;100.00
11985;BME280;6052;53.246;10.368;2023-07-28T10:27:51;100038.63;;;20.63;100.00
11985;BME280;6052;53.246;10.368;2023-07-28T10:30:24;100037.19;;;20.57;100.00
11985;BME280;6052;53.246;10.368;2023-07-28T10:32:55;100042.97;;;20.64;100.00
11985;BME280;6052;53.246;10.368;2023-07-28T10:35:25;100037.97;;;20.57;100.00
11985;BME280;6052;53.246;10.368;2023-07-28T10:37:57;100044.41;;;20.61;100.00
11985;BME280;6052;53.246;10.368;2023-07-28T10:40:28;100045.38;;;20.57;100.00
11985;BME280;6052;53.246;10.368;2023-07-28T10:42:59;100043.28;;;20.62;100.00
11985;BME280;6052;53.246;10.368;2023-07-28T10:45:32;100030.75;;;20.70;100.00
11985;BME280;6052;53.246;10.368;2023-07-28T10:48:02;100036.41;;;20.82;100.00
11985;BME280;6052;53.246;10.368;2023-07-28T10:50:32;100039.44;;;20.72;100.00
11985;BME280;6052;53.246;10.368;2023-07-28T10:53:01;100035.59;;;20.73;100.00
11985;BME280;6052;53.246;10.368;2023-07-28T10:55:31;100036.56;;;20.85;100.00
11985;BME280;6052;53.246;10.368;2023-07-28T10:58:01;100041.56;;;20.92;100.00
11985;BME280;6052;53.246;10.368;2023-07-28T11:00:33;100029.38;;;20.89;100.00
11985;BME280;6052;53.246;10.368;2023-07-28T11:03:03;100032.09;;;20.98;100.00
11985;BME280;6052;53.246;10.368;2023-07-28T11:05:33;100026.16;;;20.96;100.00
11985;BME280;6052;53.246;10.368;2023-07-28T11:08:05;100022.00;;;20.98;100.00
11985;BME280;6052;53.246;10.368;2023-07-28T11:10:36;100031.13;;;21.11;100.00
11985;BME280;6052;53.246;10.368;2023-07-28T11:13:07;100032.09;;;21.15;100.00
11985;BME280;6052;53.246;10.368;2023-07-28T11:16:00;100040.13;;;21.20;100.00
11985;BME280;6052;53.246;10.368;2023-07-28T11:18:31;100036.91;;;21.18;100.00
11985;BME280;6052;53.246;10.368;2023-07-28T11:21:00;100042.00;;;21.45;100.00
11985;BME280;6052;53.246;10.368;2023-07-28T11:23:30;100043.63;;;21.46;100.00
11985;BME280;6052;53.246;10.368;2023-07-28T11:25:59;100042.50;;;21.38;100.00
11985;BME280;6052;53.246;10.368;2023-07-28T11:28:29;100037.50;;;21.49;100.00
11985;BME280;6052;53.246;10.368;2023-07-28T11:31:01;100042.00;;;21.45;100.00
11985;BME280;6052;53.246;10.368;2023-07-28T11:33:31;100044.09;;;21.56;100.00
11985;BME280;6052;53.246;10.368;2023-07-28T11:36:00;100044.56;;;21.50;100.00
11985;BME280;6052;53.246;10.368;2023-07-28T11:38:30;100048.44;;;21.49;100.00
11985;BME280;6052;53.246;10.368;2023-07-28T11:41:00;100050.31;;;21.57;100.00
11985;BME280;6052;53.246;10.368;2023-07-28T11:43:29;100049.38;;;21.53;100.00
11985;BME280;6052;53.246;10.368;2023-07-28T11:46:02;100059.00;;;21.50;100.00
11985;BME280;6052;53.246;10.368;2023-07-28T11:48:31;100056.13;;;21.47;100.00
11985;BME280;6052;53.246;10.368;2023-07-28T11:51:01;100062.72;;;21.46;100.00
11985;BME280;6052;53.246;10.368;2023-07-28T11:53:32;100073.50;;;21.51;100.00
11985;BME280;6052;53.246;10.368;2023-07-28T11:56:04;100078.66;;;21.44;100.00
11985;BME280;6052;53.246;10.368;2023-07-28T11:58:33;100083.63;;;21.42;100.00
11985;BME280;6052;53.246;10.368;2023-07-28T12:01:10;100083.63;;;21.33;100.00
11985;BME280;6052;53.246;10.368;2023-07-28T12:03:40;100094.56;;;21.33;100.00
11985;BME280;6052;53.246;10.368;2023-07-28T12:06:10;100096.63;;;21.28;100.00
11985;BME280;6052;53.246;10.368;2023-07-28T12:09:04;100099.22;;;21.24;100.00
11985;BME280;6052;53.246;10.368;2023-07-28T12:11:35;100101.63;;;21.26;100.00
11985;BME280;6052;53.246;10.368;2023-07-28T12:14:08;100103.72;;;21.29;100.00
11985;BME280;6052;53.246;10.368;2023-07-28T12:16:47;100113.03;;;21.28;100.00
11985;BME280;6052;53.246;10.368;2023-07-28T12:19:20;100110.28;;;21.28;100.00
11985;BME280;6052;53.246;10.368;2023-07-28T12:21:49;100110.63;;;21.35;100.00
11985;BME280;6052;53.246;10.368;2023-07-28T12:24:19;100113.03;;;21.28;100.00
11985;BME280;6052;53.246;10.368;2023-07-28T12:26:50;100121.06;;;21.41;100.00
11985;BME280;6052;53.246;10.368;2023-07-28T12:29:20;100115.75;;;21.45;100.00
11985;BME280;6052;53.246;10.368;2023-07-28T12:31:59;100125.25;;;21.39;100.00
11985;BME280;6052;53.246;10.368;2023-07-28T12:34:29;100119.44;;;21.32;100.00
11985;BME280;6052;53.246;10.368;2023-07-28T12:37:16;100134.53;;;21.38;100.00
11985;BME280;6052;53.246;10.368;2023-07-28T12:40:07;100137.94;;;21.43;100.00
11985;BME280;6052;53.246;10.368;2023-07-28T12:42:58;100152.56;;;21.39;100.00
11985;BME280;6052;53.246;10.368;2023-07-28T12:45:32;100155.09;;;21.35;100.00
11985;BME280;6052;53.246;10.368;2023-07-28T12:48:07;100143.88;;;21.37;100.00
11985;BME280;6052;53.246;10.368;2023-07-28T12:50:46;100146.44;;;21.42;100.00
11985;BME280;6052;53.246;10.368;2023-07-28T12:53:16;100143.41;;;21.35;100.00
11985;BME280;6052;53.246;10.368;2023-07-28T12:55:49;100134.72;;;21.41;100.00
11985;BME280;6052;53.246;10.368;2023-07-28T12:58:21;100148.53;;;21.53;100.00
11985;BME280;6052;53.246;10.368;2023-07-28T13:00:53;100144.03;;;21.40;100.00
11985;BME280;6052;53.246;10.368;2023-07-28T13:03:30;100153.19;;;21.53;100.00
11985;BME280;6052;53.246;10.368;2023-07-28T13:05:59;100161.72;;;21.60;100.00